Quick Links (Output Below):   Max & Min Temps   /   Climate Reports   /   Zone Forecasts
River Forecasts   /   Forestry Forecasts   /   Aviation Forecasts   /   Radars   /   Features

Terminal Aerodrome Forecast (Arkadelphia)

Pick a Site:
Arkadelphia | El Dorado | Fayetteville | Fort Smith | Harrison | Highfill | Hot Springs | Jonesboro
Little Rock | Monticello | Mountain Home | Pine Bluff | Texarkana
 Forecast 

KADF 041739Z 0418/0518 04010KT 5SM -RA BR BKN008 OVC015
      TEMPO 0418/0421 2SM -RA BR BKN005 OVC010
     FM042100 02009G18KT 5SM -RA SCT008 OVC015
      TEMPO 0421/0423 2SM -RA BR OVC005
     FM042300 02010G18KT 5SM -RA BR OVC012
      TEMPO 0500/0504 2SM -FZRAPL OVC005
     FM050400 02010G20KT 4SM -FZRAPL BR OVC008
     FM050600 02012G20KT 3SM -PLSN BR OVC005
     FM051000 02018G24KT 2SM -SN BR OVC005=


 Latest METARs (Observations) 
How to Decode METARs
22Z KADF 042156Z AUTO 02014KT 1SM RA BR SCT003 BKN009 OVC020 04/04
         A3004 RMK AO2 T00440044 CIG 006V012 P0024 SLP186
         
21Z KADF 042056Z AUTO 03014KT 1 1/4SM +RA BR BKN003 BKN017 OVC028
         05/05 A3000 RMK AO2 51015 60078 T00500050 BKN V SCT P0023
         SLP173
         
20Z KADF 041956Z AUTO 03012KT 1SM +RA BR BKN003 OVC008 06/06 A2998 RMK
         AO2 T00550055 P0035 SLP167
         
19Z KADF 041856Z AUTO 02020G24KT 1 1/4SM +RA BR BKN003 BKN012 OVC019
         07/07 A2997 RMK AO2 T00720072 BKN V OVC P0021 SLP162
         
18Z KADF 041756Z AUTO 02013KT 2SM -RA BR SCT003 BKN010 OVC030 09/09
         A2995 RMK AO2 53010 60022 T00940094 10133 20094 CIG 008V014
         P0006 SLP156
         
17Z KADF 041656Z AUTO 04009KT 1 1/4SM RA BR SCT003 BKN015 OVC020 11/11
         A2995 RMK AO2 T01110111 P0007 SLP156
         
16Z KADF 041556Z AUTO 03009KT 1 1/2SM -RA BR BKN003 OVC007 13/13 A2992
         RMK AO2 T01270127 CIG 002V007 RAB08 P0009 SLP146
         
15Z KADF 041456Z AUTO 00000KT 3/4SM BR BKN004 OVC016 12/12 A2992 RMK
         AO2 53010 60000 T01160116 OVC V BKN SLP146
         
14Z KADF 041356Z AUTO 00000KT 1SM BR BKN002 OVC012 12/12 A2990 RMK AO2
         T01160116 BKN V SCT RAB43E54 P0000 SLP140
         
13Z KADF 041256Z AUTO 00000KT 1/2SM FG OVC002 11/11 A2989 RMK AO2
         T01110111 SLP137
         
***** Today's Observations (Above) *****


Back to Main Page
http://www.srh.noaa.gov/lzk/qfcst.php

USA.gov is the U.S. government's official web portal to all federal, state and local government web resources and services.